createdAt,value
2023-03-04T00:00:49.086Z,1.71
2023-03-04T00:01:48.339Z,1.71
2023-03-04T00:02:48.670Z,1.74
2023-03-04T00:03:48.003Z,1.72
2023-03-04T00:04:48.378Z,1.72
2023-03-04T00:05:48.753Z,1.71
2023-03-04T00:06:48.124Z,1.70
2023-03-04T00:07:48.461Z,1.65
2023-03-04T00:08:48.825Z,1.63
2023-03-04T00:09:48.153Z,1.63
2023-03-04T00:10:48.518Z,1.63
2023-03-04T00:11:48.924Z,1.64
2023-03-04T00:12:49.162Z,1.65
2023-03-04T00:13:49.570Z,1.63
2023-03-04T00:14:47.939Z,1.64
2023-03-04T00:15:49.256Z,1.65
2023-03-04T00:16:48.677Z,1.64
2023-03-04T00:17:48.079Z,1.65
2023-03-04T00:18:48.410Z,1.65
2023-03-04T00:19:48.770Z,1.65
2023-03-04T00:20:48.099Z,1.68
2023-03-04T00:21:48.488Z,1.67
2023-03-04T00:22:48.160Z,1.67
2023-03-04T00:23:48.215Z,1.70
2023-03-04T00:24:48.565Z,1.71
2023-03-04T00:25:47.900Z,1.72
2023-03-04T00:26:48.257Z,1.77
2023-03-04T00:27:48.653Z,1.77
2023-03-04T00:28:48.926Z,1.74
2023-03-04T00:29:48.409Z,1.71
2023-03-04T00:30:47.686Z,1.68
2023-03-04T00:31:48.106Z,1.70
2023-03-04T00:32:48.430Z,1.68
2023-03-04T00:33:47.754Z,1.71
2023-03-04T00:34:48.113Z,1.67
2023-03-04T00:35:48.512Z,1.67
2023-03-04T00:36:48.760Z,1.63
2023-03-04T00:37:48.143Z,1.63
2023-03-04T00:38:48.490Z,1.60
2023-03-04T00:39:47.760Z,1.60
2023-03-04T00:40:48.094Z,1.63
2023-03-04T00:41:48.483Z,1.61
2023-03-04T00:42:47.746Z,1.60
2023-03-04T00:43:48.134Z,1.53
2023-03-04T00:44:48.354Z,1.52
2023-03-04T00:45:48.734Z,1.52
2023-03-04T00:46:49.073Z,1.49
2023-03-04T00:47:47.887Z,1.47
2023-03-04T00:48:48.704Z,1.49
2023-03-04T00:49:48.119Z,1.50
2023-03-04T00:50:47.450Z,1.49
2023-03-04T00:51:47.751Z,1.47
2023-03-04T00:52:48.166Z,1.44
2023-03-04T00:53:47.439Z,1.47
2023-03-04T00:54:47.766Z,1.47
2023-03-04T00:55:48.147Z,1.49
2023-03-04T00:56:48.416Z,1.52
2023-03-04T00:57:48.772Z,1.52
2023-03-04T00:58:48.162Z,1.50
2023-03-04T00:59:48.393Z,1.49
2023-03-04T01:00:48.729Z,1.50
2023-03-04T01:01:49.052Z,1.53
2023-03-04T01:02:47.450Z,1.56
2023-03-04T01:03:47.722Z,1.57
2023-03-04T01:04:48.099Z,1.63
2023-03-04T01:05:47.395Z,1.64
2023-03-04T01:06:47.708Z,1.64
2023-03-04T01:07:48.046Z,1.68
2023-03-04T01:08:47.377Z,1.71
2023-03-04T01:09:47.737Z,1.71
2023-03-04T01:10:48.090Z,1.68
2023-03-04T01:11:47.362Z,1.68
2023-03-04T01:12:48.657Z,1.70
2023-03-04T01:13:48.027Z,1.70
2023-03-04T01:14:47.335Z,1.67
2023-03-04T01:15:48.658Z,1.67
2023-03-04T01:16:47.062Z,1.68
2023-03-04T01:17:47.400Z,1.68
2023-03-04T01:18:47.729Z,1.65
2023-03-04T01:19:48.034Z,1.64
2023-03-04T01:20:47.433Z,1.63
2023-03-04T01:21:47.835Z,1.63
2023-03-04T01:22:47.100Z,1.63
2023-03-04T01:23:47.446Z,1.65
2023-03-04T01:24:47.822Z,1.67
2023-03-04T01:25:47.111Z,1.70
2023-03-04T01:26:47.490Z,1.70
2023-03-04T01:27:47.895Z,1.68
2023-03-04T01:28:48.148Z,1.71
2023-03-04T01:29:47.569Z,1.70
2023-03-04T01:30:46.928Z,1.71
2023-03-04T01:31:47.256Z,1.71
2023-03-04T01:32:47.596Z,1.72
2023-03-04T01:33:46.955Z,1.72
2023-03-04T01:34:47.285Z,1.71
2023-03-04T01:35:47.714Z,1.72
2023-03-04T01:36:46.980Z,1.68
2023-03-04T01:37:47.384Z,1.71
2023-03-04T01:38:47.741Z,1.70
2023-03-04T01:39:47.026Z,1.70
2023-03-04T01:40:47.393Z,1.70
2023-03-04T01:41:46.717Z,1.71
2023-03-04T01:42:47.083Z,1.71
2023-03-04T01:43:47.423Z,1.72
2023-03-04T01:44:46.856Z,1.72
2023-03-04T01:45:47.085Z,1.70
2023-03-04T01:46:47.408Z,1.68
2023-03-04T01:47:46.732Z,1.70
2023-03-04T01:48:47.109Z,1.70
2023-03-04T01:49:47.551Z,1.71
2023-03-04T01:50:46.741Z,1.70
2023-03-04T01:51:47.108Z,1.70
2023-03-04T01:52:47.475Z,1.65
2023-03-04T01:53:47.742Z,1.63
2023-03-04T01:54:47.178Z,1.61
2023-03-04T01:55:47.740Z,1.61
2023-03-04T01:56:46.874Z,1.56
2023-03-04T01:57:47.214Z,1.57
2023-03-04T01:58:47.478Z,1.61
2023-03-04T01:59:46.927Z,1.57
2023-03-04T02:00:47.241Z,1.61
2023-03-04T02:01:46.635Z,1.63
2023-03-04T02:02:46.899Z,1.63
2023-03-04T02:03:47.230Z,1.68
2023-03-04T02:04:46.538Z,1.63
2023-03-04T02:05:46.885Z,1.61
2023-03-04T02:06:47.230Z,1.60
2023-03-04T02:07:46.544Z,1.56
2023-03-04T02:08:46.881Z,1.53
2023-03-04T02:09:47.229Z,1.54
2023-03-04T02:10:46.559Z,1.54
2023-03-04T02:11:46.899Z,1.54
2023-03-04T02:12:47.266Z,1.54
2023-03-04T02:13:46.559Z,1.50
2023-03-04T02:14:46.920Z,1.50
2023-03-04T02:15:47.292Z,1.47
2023-03-04T02:16:46.574Z,1.50
2023-03-04T02:17:46.925Z,1.52
2023-03-04T02:18:46.212Z,1.47
2023-03-04T02:19:47.524Z,1.44
2023-03-04T02:20:47.880Z,1.43
2023-03-04T02:21:47.195Z,1.44
2023-03-04T02:22:47.560Z,1.43
2023-03-04T02:23:46.990Z,1.42
2023-03-04T02:24:46.280Z,1.43
2023-03-04T02:25:46.624Z,1.42
2023-03-04T02:26:47.911Z,1.36
2023-03-04T02:27:46.266Z,1.38
2023-03-04T02:28:46.628Z,1.36
2023-03-04T02:29:47.057Z,1.35
2023-03-04T02:30:47.241Z,1.34
2023-03-04T02:31:47.619Z,1.39
2023-03-04T02:32:46.956Z,1.39
2023-03-04T02:33:47.333Z,1.42
2023-03-04T02:34:46.732Z,1.39
2023-03-04T02:35:46.198Z,1.43
2023-03-04T02:36:47.422Z,1.43
2023-03-04T02:37:47.801Z,1.42
2023-03-04T02:38:47.121Z,1.39
2023-03-04T02:39:46.554Z,1.42
2023-03-04T02:40:47.014Z,1.42
2023-03-04T02:41:46.296Z,1.43
2023-03-04T02:42:46.622Z,1.46
2023-03-04T02:43:45.971Z,1.44
2023-03-04T02:44:47.271Z,1.46
2023-03-04T02:45:47.668Z,1.46
2023-03-04T02:46:46.221Z,1.44
2023-03-04T02:47:47.392Z,1.44
2023-03-04T02:48:47.778Z,1.43
2023-03-04T02:49:46.178Z,1.44
2023-03-04T02:50:47.479Z,1.43
2023-03-04T02:51:46.823Z,1.44
2023-03-04T02:52:46.261Z,1.43
2023-03-04T02:53:46.583Z,1.44
2023-03-04T02:54:46.855Z,1.43
2023-03-04T02:55:46.251Z,1.44
2023-03-04T02:56:46.592Z,1.46
2023-03-04T02:57:45.922Z,1.44
2023-03-04T02:58:46.409Z,1.44
2023-03-04T02:59:47.621Z,1.44
2023-03-04T03:00:45.918Z,1.46
2023-03-04T03:01:46.384Z,1.46
2023-03-04T03:02:46.660Z,1.44
2023-03-04T03:03:45.955Z,1.46
2023-03-04T03:04:46.352Z,1.47
2023-03-04T03:05:45.617Z,1.47
2023-03-04T03:06:46.912Z,1.49
2023-03-04T03:07:47.271Z,1.49
2023-03-04T03:08:45.605Z,1.50
2023-03-04T03:09:45.964Z,1.50
2023-03-04T03:10:46.326Z,1.50
2023-03-04T03:11:45.644Z,1.50
2023-03-04T03:12:46.021Z,1.47
2023-03-04T03:13:47.324Z,1.50
2023-03-04T03:14:46.637Z,1.52
2023-03-04T03:15:46.720Z,1.49
2023-03-04T03:16:46.419Z,1.50
2023-03-04T03:17:45.754Z,1.50
2023-03-04T03:18:47.094Z,1.50
2023-03-04T03:19:45.454Z,1.50
2023-03-04T03:20:45.803Z,1.50
2023-03-04T03:21:46.209Z,1.50
2023-03-04T03:22:45.514Z,1.52
2023-03-04T03:23:45.873Z,1.53
2023-03-04T03:24:47.185Z,1.53
2023-03-04T03:25:45.558Z,1.53
2023-03-04T03:26:45.896Z,1.53
2023-03-04T03:27:46.356Z,1.53
2023-03-04T03:28:46.561Z,1.56
2023-03-04T03:29:45.970Z,1.56
2023-03-04T03:30:45.320Z,1.60
2023-03-04T03:31:46.655Z,1.60
2023-03-04T03:32:46.080Z,1.60
2023-03-04T03:33:46.355Z,1.61
2023-03-04T03:34:45.781Z,1.63
2023-03-04T03:35:46.144Z,1.64
2023-03-04T03:36:45.461Z,1.64
2023-03-04T03:37:45.834Z,1.64
2023-03-04T03:38:46.144Z,1.63
2023-03-04T03:39:45.560Z,1.60
2023-03-04T03:40:45.879Z,1.67
2023-03-04T03:41:45.188Z,1.67
2023-03-04T03:42:45.550Z,1.67
2023-03-04T03:43:46.921Z,1.65
2023-03-04T03:44:46.188Z,1.67
2023-03-04T03:45:45.642Z,1.65
2023-03-04T03:46:46.917Z,1.68
2023-03-04T03:47:45.250Z,1.67
2023-03-04T03:48:45.599Z,1.67
2023-03-04T03:49:46.938Z,1.65
2023-03-04T03:50:46.216Z,1.70
2023-03-04T03:51:45.628Z,1.70
2023-03-04T03:52:45.889Z,1.70
2023-03-04T03:53:46.260Z,1.70
2023-03-04T03:54:45.679Z,1.70
2023-03-04T03:55:45.048Z,1.74
2023-03-04T03:56:46.364Z,1.79
2023-03-04T03:57:45.744Z,1.75
2023-03-04T03:58:45.090Z,1.77
2023-03-04T03:59:46.390Z,1.71
2023-03-04T04:00:46.839Z,1.72
2023-03-04T04:01:45.198Z,1.72
2023-03-04T04:02:45.663Z,1.72
2023-03-04T04:03:45.766Z,1.74
2023-03-04T04:04:45.204Z,1.72
2023-03-04T04:05:46.476Z,1.75
2023-03-04T04:06:45.841Z,1.75
2023-03-04T04:07:45.184Z,1.75
2023-03-04T04:08:46.524Z,1.77
2023-03-04T04:09:45.821Z,1.74
2023-03-04T04:10:45.197Z,1.75
2023-03-04T04:11:45.622Z,1.75
2023-03-04T04:12:44.890Z,1.75
2023-03-04T04:13:45.256Z,1.81
2023-03-04T04:14:45.620Z,1.79
2023-03-04T04:15:44.966Z,1.83
2023-03-04T04:16:45.829Z,1.86
2023-03-04T04:17:45.190Z,1.89
2023-03-04T04:18:45.548Z,1.86
2023-03-04T04:19:45.855Z,1.86
2023-03-04T04:20:45.292Z,1.90
2023-03-04T04:21:44.621Z,1.90
2023-03-04T04:22:45.001Z,1.92
2023-03-04T04:23:45.413Z,1.89
2023-03-04T04:24:44.748Z,1.89
2023-03-04T04:25:45.097Z,1.89
2023-03-04T04:26:45.482Z,1.88
2023-03-04T04:27:45.751Z,1.88
2023-03-04T04:28:46.111Z,1.88
2023-03-04T04:29:44.545Z,1.86
2023-03-04T04:30:44.911Z,1.86
2023-03-04T04:31:46.244Z,1.83
2023-03-04T04:32:44.651Z,1.88
2023-03-04T04:33:45.043Z,1.90
2023-03-04T04:34:44.385Z,1.90
2023-03-04T04:35:45.911Z,1.93
2023-03-04T04:36:45.145Z,1.93
2023-03-04T04:37:44.533Z,1.93
2023-03-04T04:38:45.832Z,1.92
2023-03-04T04:39:45.212Z,1.92
2023-03-04T04:40:44.556Z,1.93
2023-03-04T04:41:45.966Z,1.93
2023-03-04T04:42:46.227Z,1.93
2023-03-04T04:43:44.838Z,1.92
2023-03-04T04:44:44.966Z,1.90
2023-03-04T04:45:44.339Z,1.93
2023-03-04T04:46:44.640Z,1.95
2023-03-04T04:47:46.209Z,1.93
2023-03-04T04:48:44.327Z,1.95
2023-03-04T04:49:44.663Z,1.95
2023-03-04T04:50:45.003Z,1.92
2023-03-04T04:51:44.325Z,1.95
2023-03-04T04:52:44.700Z,1.93
2023-03-04T04:53:45.071Z,2.00
2023-03-04T04:54:44.377Z,1.93
2023-03-04T04:55:44.729Z,1.93
2023-03-04T04:56:45.096Z,1.92
2023-03-04T04:57:44.411Z,1.93
2023-03-04T04:58:44.779Z,1.92
2023-03-04T04:59:44.134Z,1.93
2023-03-04T05:00:44.470Z,1.95
2023-03-04T05:01:44.864Z,1.95
2023-03-04T05:02:44.149Z,1.98
2023-03-04T05:03:44.619Z,1.98
2023-03-04T05:04:44.979Z,2.01
2023-03-04T05:05:44.205Z,2.02
2023-03-04T05:06:44.574Z,2.01
2023-03-04T05:07:44.921Z,2.00
2023-03-04T05:08:45.174Z,2.01
2023-03-04T05:09:45.514Z,2.00
2023-03-04T05:10:44.961Z,1.98
2023-03-04T05:11:44.206Z,2.01
2023-03-04T05:12:44.526Z,2.00
2023-03-04T05:13:45.785Z,2.01
2023-03-04T05:14:44.951Z,1.98
2023-03-04T05:15:45.321Z,1.98
2023-03-04T05:16:44.707Z,1.98
2023-03-04T05:17:44.887Z,1.98
2023-03-04T05:18:44.226Z,1.98
2023-03-04T05:19:44.597Z,1.98
2023-03-04T05:20:43.888Z,1.98
2023-03-04T05:21:45.130Z,1.95
2023-03-04T05:22:44.557Z,2.01
2023-03-04T05:23:43.811Z,2.02
2023-03-04T05:24:44.129Z,2.02
2023-03-04T05:25:44.478Z,2.04
2023-03-04T05:26:43.783Z,2.07
2023-03-04T05:27:44.087Z,2.05
2023-03-04T05:28:44.537Z,2.04
2023-03-04T05:29:43.728Z,2.04
2023-03-04T05:30:44.158Z,2.05
2023-03-04T05:31:44.458Z,2.05
2023-03-04T05:32:43.768Z,2.05
2023-03-04T05:33:44.096Z,2.02
2023-03-04T05:34:44.571Z,2.01
2023-03-04T05:35:43.798Z,2.01
2023-03-04T05:36:44.108Z,2.01
2023-03-04T05:37:44.469Z,2.02
2023-03-04T05:38:43.751Z,2.04
2023-03-04T05:39:44.092Z,2.04
2023-03-04T05:40:44.462Z,2.04
2023-03-04T05:41:43.743Z,2.04
2023-03-04T05:42:44.083Z,2.05
2023-03-04T05:43:44.424Z,2.05
2023-03-04T05:44:43.689Z,2.08
2023-03-04T05:45:44.041Z,2.05
2023-03-04T05:46:44.443Z,2.04
2023-03-04T05:47:43.665Z,2.01
2023-03-04T05:48:44.019Z,2.02
2023-03-04T05:49:44.340Z,2.01
2023-03-04T05:50:43.630Z,2.00
2023-03-04T05:51:43.960Z,2.00
2023-03-04T05:52:44.360Z,1.95
2023-03-04T05:53:45.640Z,1.95
2023-03-04T05:54:43.950Z,1.95
2023-03-04T05:55:44.285Z,1.98
2023-03-04T05:56:43.559Z,2.00
2023-03-04T05:57:43.920Z,1.98
2023-03-04T05:58:44.323Z,2.00
2023-03-04T05:59:43.539Z,1.98
2023-03-04T06:00:43.892Z,1.98
2023-03-04T06:01:44.241Z,1.98
2023-03-04T06:02:43.546Z,1.98
2023-03-04T06:03:43.960Z,1.95
2023-03-04T06:04:44.218Z,1.95
2023-03-04T06:05:43.449Z,1.95
2023-03-04T06:06:43.780Z,2.01
2023-03-04T06:07:45.080Z,2.00
2023-03-04T06:08:43.437Z,2.02
2023-03-04T06:09:43.749Z,2.04
2023-03-04T06:10:44.202Z,2.07
2023-03-04T06:11:44.309Z,2.05
2023-03-04T06:12:44.662Z,2.02
2023-03-04T06:13:44.980Z,2.05
2023-03-04T06:14:43.339Z,2.05
2023-03-04T06:15:43.711Z,2.07
2023-03-04T06:16:44.155Z,2.09
2023-03-04T06:17:45.380Z,2.09
2023-03-04T06:18:43.754Z,2.08
2023-03-04T06:19:43.084Z,2.09
2023-03-04T06:20:43.461Z,2.08
2023-03-04T06:21:44.801Z,2.08
2023-03-04T06:22:43.240Z,2.07
2023-03-04T06:23:43.551Z,2.07
2023-03-04T06:24:43.930Z,2.08
2023-03-04T06:25:43.251Z,2.07
2023-03-04T06:26:43.635Z,2.08
2023-03-04T06:27:42.962Z,2.09
2023-03-04T06:28:43.430Z,2.09
2023-03-04T06:29:43.670Z,2.09
2023-03-04T06:30:43.016Z,2.11
2023-03-04T06:31:43.412Z,2.12
2023-03-04T06:32:43.758Z,2.12
2023-03-04T06:33:43.091Z,2.15
2023-03-04T06:34:43.438Z,2.19
2023-03-04T06:35:43.836Z,2.20
2023-03-04T06:36:43.135Z,2.19
2023-03-04T06:37:43.521Z,2.20
2023-03-04T06:38:42.821Z,2.19
2023-03-04T06:39:43.180Z,2.20
2023-03-04T06:40:43.529Z,2.22
2023-03-04T06:41:42.899Z,2.22
2023-03-04T06:42:43.249Z,2.26
2023-03-04T06:43:43.655Z,2.26
2023-03-04T06:44:42.907Z,2.27
2023-03-04T06:45:43.283Z,2.26
2023-03-04T06:46:43.702Z,2.25
2023-03-04T06:47:42.987Z,2.27
2023-03-04T06:48:43.328Z,2.25
2023-03-04T06:49:42.712Z,2.26
2023-03-04T06:50:43.009Z,2.26
2023-03-04T06:51:43.372Z,2.27
2023-03-04T06:52:42.683Z,2.27
2023-03-04T06:53:43.075Z,2.30
2023-03-04T06:54:43.437Z,2.32
2023-03-04T06:55:42.750Z,2.32
2023-03-04T06:56:43.111Z,2.32
2023-03-04T06:57:44.932Z,2.33
2023-03-04T06:58:42.845Z,2.33
2023-03-04T06:59:43.157Z,2.36
2023-03-04T07:00:43.539Z,2.33
2023-03-04T07:01:42.778Z,2.36
2023-03-04T07:02:43.132Z,2.38
2023-03-04T07:03:43.539Z,2.41
2023-03-04T07:04:42.787Z,2.41
2023-03-04T07:05:43.168Z,2.41
2023-03-04T07:06:42.561Z,2.43
2023-03-04T07:07:42.816Z,2.41
2023-03-04T07:08:43.193Z,2.38
2023-03-04T07:09:42.695Z,2.41
2023-03-04T07:10:42.870Z,2.41
2023-03-04T07:11:43.197Z,2.41
2023-03-04T07:12:42.534Z,2.44
2023-03-04T07:13:42.887Z,2.43
2023-03-04T07:14:43.279Z,2.44
2023-03-04T07:15:42.592Z,2.44
2023-03-04T07:16:42.987Z,2.45
2023-03-04T07:17:42.286Z,2.45
2023-03-04T07:18:42.692Z,2.48
2023-03-04T07:19:43.024Z,2.47
2023-03-04T07:20:42.313Z,2.44
2023-03-04T07:21:42.678Z,2.47
2023-03-04T07:22:43.088Z,2.45
2023-03-04T07:23:42.324Z,2.44
2023-03-04T07:24:42.662Z,2.43
2023-03-04T07:25:43.014Z,2.45
2023-03-04T07:26:42.339Z,2.43
2023-03-04T07:27:43.601Z,2.45
2023-03-04T07:28:43.015Z,2.44
2023-03-04T07:29:42.266Z,2.43
2023-03-04T07:30:42.622Z,2.44
2023-03-04T07:31:43.019Z,2.43
2023-03-04T07:32:43.266Z,2.43
2023-03-04T07:33:42.594Z,2.44
2023-03-04T07:34:42.973Z,2.47
2023-03-04T07:35:42.288Z,2.51
2023-03-04T07:36:42.597Z,2.51
2023-03-04T07:37:42.954Z,2.51
2023-03-04T07:38:42.225Z,2.56
2023-03-04T07:39:42.589Z,2.56
2023-03-04T07:40:42.993Z,2.58
2023-03-04T07:41:42.213Z,2.59
2023-03-04T07:42:42.577Z,2.61
2023-03-04T07:43:42.922Z,2.62
2023-03-04T07:44:42.182Z,2.62
2023-03-04T07:45:42.574Z,2.61
2023-03-04T07:46:42.992Z,2.62
2023-03-04T07:47:42.205Z,2.63
2023-03-04T07:48:43.514Z,2.65
2023-03-04T07:49:42.922Z,2.65
2023-03-04T07:50:43.256Z,2.68
2023-03-04T07:51:42.565Z,2.66
2023-03-04T07:52:41.944Z,2.68
2023-03-04T07:53:43.186Z,2.68
2023-03-04T07:54:43.488Z,2.69
2023-03-04T07:55:42.819Z,2.68
2023-03-04T07:56:43.150Z,2.71
2023-03-04T07:57:42.704Z,2.66
2023-03-04T07:58:41.838Z,2.68
2023-03-04T07:59:42.196Z,2.68
2023-03-04T08:00:42.579Z,2.68
2023-03-04T08:01:43.232Z,2.68
2023-03-04T08:02:42.250Z,2.68
2023-03-04T08:03:42.629Z,2.76
2023-03-04T08:04:42.181Z,2.69
2023-03-04T08:05:42.204Z,2.74
2023-03-04T08:06:42.540Z,2.71
2023-03-04T08:07:41.864Z,2.73
2023-03-04T08:08:42.198Z,2.73
2023-03-04T08:09:42.609Z,2.73
2023-03-04T08:10:41.834Z,2.74
2023-03-04T08:11:42.168Z,2.73
2023-03-04T08:12:42.499Z,2.77
2023-03-04T08:13:41.768Z,2.79
2023-03-04T08:14:43.022Z,2.79
2023-03-04T08:15:42.924Z,2.80
2023-03-04T08:16:41.779Z,2.80
2023-03-04T08:17:42.082Z,2.83
2023-03-04T08:18:42.409Z,2.83
2023-03-04T08:19:41.711Z,2.83
2023-03-04T08:20:42.036Z,2.86
2023-03-04T08:21:42.499Z,2.87
2023-03-04T08:22:41.667Z,2.89
2023-03-04T08:23:42.090Z,2.94
2023-03-04T08:24:42.327Z,2.92
2023-03-04T08:25:41.624Z,2.95
2023-03-04T08:26:42.170Z,2.95
2023-03-04T08:27:42.323Z,2.95
2023-03-04T08:28:41.567Z,2.98
2023-03-04T08:29:41.884Z,2.99
2023-03-04T08:30:42.220Z,3.02
2023-03-04T08:31:41.653Z,3.02
2023-03-04T08:32:41.948Z,3.07
2023-03-04T08:33:42.209Z,3.05
2023-03-04T08:34:41.465Z,3.05
2023-03-04T08:35:41.845Z,3.05
2023-03-04T08:36:42.150Z,3.10
2023-03-04T08:37:41.464Z,3.08
2023-03-04T08:38:41.803Z,3.12
2023-03-04T08:39:42.318Z,3.13
2023-03-04T08:40:41.442Z,3.13
2023-03-04T08:41:41.767Z,3.15
2023-03-04T08:42:42.114Z,3.16
2023-03-04T08:43:41.394Z,3.17
2023-03-04T08:44:41.761Z,3.19
2023-03-04T08:45:42.172Z,3.19
2023-03-04T08:46:42.384Z,3.19
2023-03-04T08:47:41.767Z,3.22
2023-03-04T08:48:42.121Z,3.22
2023-03-04T08:49:42.361Z,3.23
2023-03-04T08:50:41.752Z,3.20
2023-03-04T08:51:41.078Z,3.20
2023-03-04T08:52:42.337Z,3.22
2023-03-04T08:53:42.709Z,3.26
2023-03-04T08:54:41.032Z,3.28
2023-03-04T08:55:41.362Z,3.31
2023-03-04T08:56:41.842Z,3.30
2023-03-04T08:57:42.007Z,3.30
2023-03-04T08:58:41.386Z,3.28
2023-03-04T08:59:41.724Z,3.25
2023-03-04T09:00:43.034Z,3.25
2023-03-04T09:01:41.382Z,3.25
2023-03-04T09:02:41.894Z,3.26
2023-03-04T09:03:41.094Z,3.31
2023-03-04T09:04:42.359Z,3.30
2023-03-04T09:05:41.735Z,3.31
2023-03-04T09:06:41.932Z,3.37
2023-03-04T09:07:41.294Z,3.35
2023-03-04T09:08:41.674Z,3.34
2023-03-04T09:09:41.872Z,3.37
2023-03-04T09:10:41.262Z,3.41
2023-03-04T09:11:42.517Z,3.42
2023-03-04T09:12:40.868Z,3.41
2023-03-04T09:13:41.205Z,3.42
2023-03-04T09:14:41.544Z,3.41
2023-03-04T09:15:41.772Z,3.44
2023-03-04T09:16:41.142Z,3.42
2023-03-04T09:17:42.419Z,3.44
2023-03-04T09:18:41.697Z,3.44
2023-03-04T09:19:41.123Z,3.46
2023-03-04T09:20:41.480Z,3.45
2023-03-04T09:21:41.648Z,3.49
2023-03-04T09:22:41.988Z,3.52
2023-03-04T09:23:42.311Z,3.50
2023-03-04T09:24:40.643Z,3.50
2023-03-04T09:25:40.958Z,3.54
2023-03-04T09:26:41.363Z,3.54
2023-03-04T09:27:40.604Z,3.57
2023-03-04T09:28:40.923Z,3.56
2023-03-04T09:29:42.223Z,3.59
2023-03-04T09:30:41.505Z,3.60
2023-03-04T09:31:40.977Z,3.63
2023-03-04T09:32:41.276Z,3.63
2023-03-04T09:33:42.559Z,3.63
2023-03-04T09:34:40.831Z,3.63
2023-03-04T09:35:41.219Z,3.64
2023-03-04T09:36:41.554Z,3.67
2023-03-04T09:37:41.691Z,3.71
2023-03-04T09:38:42.045Z,3.72
2023-03-04T09:39:42.357Z,3.70
2023-03-04T09:40:40.698Z,3.71
2023-03-04T09:41:41.966Z,3.72
2023-03-04T09:42:41.358Z,3.74
2023-03-04T09:43:41.567Z,3.74
2023-03-04T09:44:41.875Z,3.78
2023-03-04T09:45:42.212Z,3.77
2023-03-04T09:46:40.796Z,3.75
2023-03-04T09:47:41.808Z,3.77
2023-03-04T09:48:41.234Z,3.77
2023-03-04T09:49:41.421Z,3.77
2023-03-04T09:50:41.753Z,3.78
2023-03-04T09:51:41.128Z,3.80
2023-03-04T09:52:40.433Z,3.80
2023-03-04T09:53:41.736Z,3.81
2023-03-04T09:54:42.082Z,3.84
2023-03-04T09:55:40.390Z,3.90
2023-03-04T09:56:41.675Z,3.90
2023-03-04T09:57:41.033Z,3.93
2023-03-04T09:58:40.393Z,3.95
2023-03-04T09:59:40.712Z,3.98
2023-03-04T10:00:42.091Z,3.99
2023-03-04T10:01:41.266Z,3.99
2023-03-04T10:02:40.648Z,3.98
2023-03-04T10:03:42.013Z,4.04
2023-03-04T10:04:41.265Z,4.06
2023-03-04T10:05:41.589Z,4.08
2023-03-04T10:06:41.072Z,4.14
2023-03-04T10:07:41.181Z,4.17
2023-03-04T10:08:41.516Z,4.18
2023-03-04T10:09:40.893Z,4.21
2023-03-04T10:10:40.270Z,4.25
2023-03-04T10:11:40.521Z,4.26
2023-03-04T10:12:41.931Z,4.31
2023-03-04T10:13:41.115Z,4.35
2023-03-04T10:14:41.459Z,4.38
2023-03-04T10:15:40.841Z,4.43
2023-03-04T10:16:40.213Z,4.47
2023-03-04T10:17:41.421Z,4.50
2023-03-04T10:18:40.806Z,4.51
2023-03-04T10:19:40.101Z,4.57
2023-03-04T10:20:40.404Z,4.62
2023-03-04T10:21:40.720Z,4.65
2023-03-04T10:22:40.010Z,4.79
2023-03-04T10:23:41.356Z,4.93
2023-03-04T10:24:41.065Z,5.04
2023-03-04T10:25:39.940Z,5.14
2023-03-04T10:26:46.034Z,5.26
2023-03-04T10:27:41.540Z,5.40
2023-03-04T10:28:39.837Z,5.30
2023-03-04T10:29:41.107Z,5.24
2023-03-04T10:30:40.519Z,5.29
2023-03-04T10:31:40.716Z,5.30
2023-03-04T10:32:40.143Z,5.47
2023-03-04T10:33:41.308Z,5.58
2023-03-04T10:34:40.675Z,5.66
2023-03-04T10:35:40.887Z,5.67
2023-03-04T10:36:41.220Z,5.77
2023-03-04T10:37:40.492Z,5.73
2023-03-04T10:38:40.755Z,5.63
2023-03-04T10:39:40.076Z,5.65
2023-03-04T10:40:46.034Z,5.69
2023-03-04T10:41:40.707Z,5.69
2023-03-04T10:42:40.168Z,5.75
2023-03-04T10:43:41.260Z,5.70
2023-03-04T10:44:40.510Z,5.60
2023-03-04T10:45:40.833Z,5.55
2023-03-04T10:46:40.177Z,5.52
2023-03-04T10:47:40.606Z,5.45
2023-03-04T10:48:39.736Z,5.41
2023-03-04T10:49:40.996Z,5.33
2023-03-04T10:50:40.390Z,5.30
2023-03-04T10:51:40.605Z,5.23
2023-03-04T10:52:39.964Z,5.19
2023-03-04T10:53:40.344Z,5.14
2023-03-04T10:54:40.520Z,5.08
2023-03-04T10:55:39.875Z,5.09
2023-03-04T10:56:41.193Z,5.09
2023-03-04T10:57:39.514Z,5.09
2023-03-04T10:58:39.838Z,5.08
2023-03-04T10:59:41.071Z,5.06
2023-03-04T11:00:39.388Z,5.08
2023-03-04T11:01:39.708Z,5.08
2023-03-04T11:02:40.052Z,5.06
2023-03-04T11:03:39.332Z,5.06
2023-03-04T11:04:40.639Z,5.09
2023-03-04T11:05:40.873Z,5.11
2023-03-04T11:06:40.246Z,5.08
2023-03-04T11:07:54.030Z,5.08
2023-03-04T11:08:40.822Z,5.11
2023-03-04T11:09:41.095Z,5.15
2023-03-04T11:10:39.405Z,5.14
2023-03-04T11:11:40.682Z,5.14
2023-03-04T11:12:40.019Z,5.17
2023-03-04T11:13:40.252Z,5.20
2023-03-04T11:14:40.564Z,5.24
2023-03-04T11:15:40.929Z,5.24
2023-03-04T11:16:39.299Z,5.22
2023-03-04T11:17:40.447Z,5.23
2023-03-04T11:18:40.747Z,5.23
2023-03-04T11:19:41.042Z,5.23
2023-03-04T11:20:40.353Z,5.22
2023-03-04T11:21:40.787Z,5.24
2023-03-04T11:22:40.967Z,5.26
2023-03-04T11:23:40.237Z,5.29
2023-03-04T11:24:40.530Z,5.29
2023-03-04T11:25:39.878Z,5.27
2023-03-04T11:26:39.150Z,5.26
2023-03-04T11:27:40.505Z,5.19
2023-03-04T11:28:39.785Z,5.12
2023-03-04T11:29:40.021Z,5.14
2023-03-04T11:30:39.348Z,5.14
2023-03-04T11:31:39.694Z,5.14
2023-03-04T11:32:39.032Z,5.12
2023-03-04T11:33:39.261Z,5.15
2023-03-04T11:34:39.543Z,5.19
2023-03-04T11:35:40.883Z,5.22
2023-03-04T11:36:39.177Z,5.23
2023-03-04T11:37:40.578Z,5.24
2023-03-04T11:38:40.797Z,5.30
2023-03-04T11:39:40.003Z,5.33
2023-03-04T11:40:40.373Z,5.38
2023-03-04T11:41:40.632Z,5.45
2023-03-04T11:42:39.919Z,5.49
2023-03-04T11:43:40.277Z,5.55
2023-03-04T11:44:40.636Z,5.55
2023-03-04T11:45:38.909Z,5.52
2023-03-04T11:46:39.246Z,5.52
2023-03-04T11:47:39.497Z,5.55
2023-03-04T11:48:39.730Z,5.52
2023-03-04T11:49:40.061Z,5.56
2023-03-04T11:50:40.431Z,5.58
2023-03-04T11:51:39.747Z,5.55
2023-03-04T11:52:40.990Z,5.55
2023-03-04T11:53:40.286Z,5.59
2023-03-04T11:54:40.565Z,5.59
2023-03-04T11:55:39.819Z,5.60
2023-03-04T11:56:40.171Z,5.67
2023-03-04T11:57:44.205Z,5.75
2023-03-04T11:58:39.634Z,5.78
2023-03-04T11:59:39.913Z,5.87
2023-03-04T12:00:39.276Z,5.93
2023-03-04T12:01:39.578Z,6.01
2023-03-04T12:02:38.792Z,6.06
2023-03-04T12:03:39.073Z,6.08
2023-03-04T12:04:40.387Z,6.10
2023-03-04T12:05:39.600Z,6.13
2023-03-04T12:06:38.912Z,6.06
2023-03-04T12:07:40.542Z,6.06
2023-03-04T12:08:40.453Z,6.08
2023-03-04T12:09:38.727Z,6.05
2023-03-04T12:10:39.990Z,5.99
2023-03-04T12:11:40.288Z,5.96
2023-03-04T12:12:38.548Z,5.92
2023-03-04T12:13:39.783Z,5.87
2023-03-04T12:14:39.116Z,5.81
2023-03-04T12:15:38.401Z,5.78
2023-03-04T12:16:39.616Z,5.73
2023-03-04T12:17:39.917Z,5.73
2023-03-04T12:18:40.230Z,5.70
2023-03-04T12:19:39.498Z,5.70
2023-03-04T12:20:38.829Z,5.69
2023-03-04T12:21:39.123Z,5.67
2023-03-04T12:22:38.368Z,5.63
2023-03-04T12:23:38.719Z,5.66
2023-03-04T12:24:39.894Z,5.66
2023-03-04T12:25:39.260Z,5.65
2023-03-04T12:26:39.451Z,5.63
2023-03-04T12:27:39.786Z,5.63
2023-03-04T12:28:39.169Z,5.59
2023-03-04T12:29:38.423Z,5.59
2023-03-04T12:30:39.679Z,5.58
2023-03-04T12:31:39.221Z,5.58
2023-03-04T12:32:38.352Z,5.58
2023-03-04T12:33:38.704Z,5.55
2023-03-04T12:34:39.145Z,5.52
2023-03-04T12:35:38.254Z,5.52
2023-03-04T12:36:38.546Z,5.52
2023-03-04T12:37:38.887Z,5.49
2023-03-04T12:38:38.106Z,5.52
2023-03-04T12:39:39.359Z,5.55
2023-03-04T12:40:39.741Z,5.52
2023-03-04T12:41:39.981Z,5.52
2023-03-04T12:42:39.270Z,5.49
2023-03-04T12:43:38.636Z,5.51
2023-03-04T12:44:38.957Z,5.51
2023-03-04T12:45:39.180Z,5.52
2023-03-04T12:46:39.571Z,5.49
2023-03-04T12:47:39.820Z,5.48
2023-03-04T12:48:38.132Z,5.44
2023-03-04T12:49:38.432Z,5.45
2023-03-04T12:50:38.741Z,5.47
2023-03-04T12:51:40.016Z,5.42
2023-03-04T12:52:39.346Z,5.45
2023-03-04T12:53:38.671Z,5.47
2023-03-04T12:54:37.942Z,5.48
2023-03-04T12:55:39.181Z,5.51
2023-03-04T12:56:38.583Z,5.55
2023-03-04T12:57:37.940Z,5.60
2023-03-04T12:58:39.103Z,5.60
2023-03-04T12:59:38.475Z,5.62
2023-03-04T13:00:37.762Z,5.60
2023-03-04T13:01:39.022Z,5.60
2023-03-04T13:02:38.526Z,5.59
2023-03-04T13:03:39.684Z,5.59
2023-03-04T13:04:38.915Z,5.52
2023-03-04T13:05:39.236Z,5.52
2023-03-04T13:06:39.551Z,5.55
2023-03-04T13:07:38.786Z,5.58
2023-03-04T13:08:38.235Z,5.58
2023-03-04T13:09:38.481Z,5.58
2023-03-04T13:10:38.680Z,5.59
2023-03-04T13:11:38.114Z,5.56
2023-03-04T13:12:39.275Z,5.56
2023-03-04T13:13:38.539Z,5.52
2023-03-04T13:14:38.890Z,5.55
2023-03-04T13:15:39.128Z,5.55
2023-03-04T13:16:39.420Z,5.51
2023-03-04T13:17:38.706Z,5.55
2023-03-04T13:18:38.062Z,5.52